createdAt,value
2022-08-16T00:00:03.568Z,984.97
2022-08-16T00:00:55.526Z,984.95
2022-08-16T00:01:54.539Z,984.99
2022-08-16T00:02:54.495Z,984.94
2022-08-16T00:03:54.488Z,984.95
2022-08-16T00:04:54.483Z,984.93
2022-08-16T00:05:57.861Z,984.92
2022-08-16T00:06:54.463Z,984.91
2022-08-16T00:07:57.021Z,984.91
2022-08-16T00:08:54.434Z,984.88
2022-08-16T00:09:54.423Z,984.87
2022-08-16T00:10:54.413Z,984.96
2022-08-16T00:11:55.403Z,984.94
2022-08-16T00:12:54.636Z,984.98
2022-08-16T00:13:55.631Z,984.96
2022-08-16T00:14:56.755Z,985.00
2022-08-16T00:15:54.455Z,984.98
2022-08-16T00:17:00.657Z,984.94
2022-08-16T00:17:57.199Z,984.95
2022-08-16T00:18:54.329Z,984.96
2022-08-16T00:19:55.029Z,984.97
2022-08-16T00:20:54.321Z,984.99
2022-08-16T00:21:56.071Z,985.05
2022-08-16T00:22:54.279Z,985.04
2022-08-16T00:23:54.273Z,985.04
2022-08-16T00:24:54.620Z,985.08
2022-08-16T00:26:35.308Z,985.01
2022-08-16T00:26:55.278Z,984.99
2022-08-16T00:27:54.218Z,985.03
2022-08-16T00:28:54.591Z,985.09
2022-08-16T00:30:08.410Z,984.97
2022-08-16T00:30:55.233Z,985.05
2022-08-16T00:32:01.229Z,984.97
2022-08-16T00:32:57.042Z,984.94
2022-08-16T00:33:54.202Z,984.93
2022-08-16T00:34:54.328Z,984.92
2022-08-16T00:35:54.182Z,984.98
2022-08-16T00:36:55.720Z,984.97
2022-08-16T00:37:58.690Z,984.96
2022-08-16T00:38:56.196Z,984.98
2022-08-16T00:39:57.261Z,985.07
2022-08-16T00:40:54.169Z,985.07
2022-08-16T00:41:54.120Z,985.13
2022-08-16T00:42:54.807Z,985.08
2022-08-16T00:43:54.123Z,985.08
2022-08-16T00:44:54.107Z,985.04
2022-08-16T00:45:57.852Z,985.04
2022-08-16T00:47:02.419Z,985.06
2022-08-16T00:47:55.078Z,985.08
2022-08-16T00:48:54.033Z,984.96
2022-08-16T00:49:56.648Z,984.98
2022-08-16T00:50:55.500Z,985.02
2022-08-16T00:51:55.635Z,985.01
2022-08-16T00:52:54.311Z,984.99
2022-08-16T00:53:54.001Z,984.96
2022-08-16T00:54:53.981Z,984.97
2022-08-16T00:55:53.985Z,984.96
2022-08-16T00:56:58.592Z,984.89
2022-08-16T00:57:59.545Z,984.97
2022-08-16T00:58:54.954Z,984.94
2022-08-16T00:59:58.764Z,985.04
2022-08-16T01:00:54.982Z,984.99
2022-08-16T01:01:53.935Z,985.01
2022-08-16T01:02:53.918Z,984.99
2022-08-16T01:03:53.893Z,985.09
2022-08-16T01:05:09.045Z,985.00
2022-08-16T01:05:54.906Z,985.08
2022-08-16T01:07:01.760Z,985.10
2022-08-16T01:07:54.857Z,985.08
2022-08-16T01:08:53.864Z,985.13
2022-08-16T01:09:53.843Z,985.09
2022-08-16T01:10:53.828Z,985.09
2022-08-16T01:11:55.359Z,985.11
2022-08-16T01:12:53.816Z,985.08
2022-08-16T01:13:53.802Z,985.04
2022-08-16T01:14:53.784Z,985.02
2022-08-16T01:15:53.815Z,985.01
2022-08-16T01:16:53.790Z,984.99
2022-08-16T01:17:55.759Z,984.96
2022-08-16T01:18:53.752Z,985.03
2022-08-16T01:19:57.117Z,985.07
2022-08-16T01:20:53.739Z,985.02
2022-08-16T01:21:53.716Z,985.08
2022-08-16T01:22:53.760Z,985.00
2022-08-16T01:24:00.871Z,985.04
2022-08-16T01:24:55.669Z,985.06
2022-08-16T01:26:00.407Z,985.06
2022-08-16T01:26:54.705Z,985.07
2022-08-16T01:27:53.657Z,985.07
2022-08-16T01:28:53.644Z,985.13
2022-08-16T01:29:57.931Z,985.08
2022-08-16T01:30:54.632Z,985.08
2022-08-16T01:31:53.626Z,985.08
2022-08-16T01:33:02.173Z,985.08
2022-08-16T01:33:55.582Z,985.10
2022-08-16T01:34:53.842Z,985.07
2022-08-16T01:35:53.591Z,985.08
2022-08-16T01:36:56.891Z,985.03
2022-08-16T01:37:54.238Z,985.00
2022-08-16T01:38:57.413Z,985.04
2022-08-16T01:39:53.558Z,985.04
2022-08-16T01:40:53.544Z,985.01
2022-08-16T01:41:53.506Z,985.04
2022-08-16T01:42:53.924Z,985.02
2022-08-16T01:43:54.474Z,984.99
2022-08-16T01:44:53.502Z,985.09
2022-08-16T01:45:57.497Z,985.04
2022-08-16T01:46:53.448Z,985.06
2022-08-16T01:47:53.475Z,985.06
2022-08-16T01:48:53.451Z,985.06
2022-08-16T01:50:43.556Z,985.08
2022-08-16T01:51:09.751Z,985.06
2022-08-16T01:51:54.425Z,985.07
2022-08-16T01:52:53.453Z,985.10
2022-08-16T01:53:54.585Z,985.07
2022-08-16T01:54:53.542Z,985.05
2022-08-16T01:55:53.872Z,985.05
2022-08-16T01:56:53.395Z,985.02
2022-08-16T01:57:56.470Z,985.11
2022-08-16T01:58:53.355Z,985.03
2022-08-16T01:59:54.792Z,985.07
2022-08-16T02:00:53.327Z,985.11
2022-08-16T02:01:59.884Z,985.06
2022-08-16T02:02:54.330Z,985.11
2022-08-16T02:03:53.295Z,985.07
2022-08-16T02:04:54.730Z,985.14
2022-08-16T02:05:53.267Z,985.17
2022-08-16T02:06:53.297Z,985.08
2022-08-16T02:07:53.486Z,985.06
2022-08-16T02:08:53.268Z,985.08
2022-08-16T02:09:57.191Z,985.02
2022-08-16T02:10:54.221Z,985.11
2022-08-16T02:11:53.691Z,985.05
2022-08-16T02:12:59.839Z,985.13
2022-08-16T02:13:54.859Z,985.07
2022-08-16T02:14:53.222Z,985.03
2022-08-16T02:15:53.193Z,985.03
2022-08-16T02:16:53.164Z,985.07
2022-08-16T02:17:53.187Z,984.98
2022-08-16T02:18:53.156Z,985.05
2022-08-16T02:19:58.997Z,985.03
2022-08-16T02:20:54.139Z,985.03
2022-08-16T02:22:08.416Z,985.04
2022-08-16T02:22:55.283Z,985.06
2022-08-16T02:23:55.648Z,985.06
2022-08-16T02:24:53.099Z,985.01
2022-08-16T02:25:54.667Z,984.99
2022-08-16T02:26:54.060Z,985.03
2022-08-16T02:27:53.054Z,985.04
2022-08-16T02:28:53.040Z,985.02
2022-08-16T02:29:53.057Z,984.98
2022-08-16T02:30:54.052Z,984.99
2022-08-16T02:32:03.212Z,985.06
2022-08-16T02:32:54.032Z,985.01
2022-08-16T02:33:52.986Z,985.02
2022-08-16T02:34:56.425Z,985.02
2022-08-16T02:35:58.150Z,984.98
2022-08-16T02:36:53.964Z,985.04
2022-08-16T02:37:53.450Z,985.10
2022-08-16T02:38:52.974Z,985.09
2022-08-16T02:39:54.047Z,985.07
2022-08-16T02:40:54.399Z,985.05
2022-08-16T02:41:53.205Z,985.05
2022-08-16T02:42:53.098Z,985.04
2022-08-16T02:43:52.892Z,985.02
2022-08-16T02:44:52.881Z,984.98
2022-08-16T02:45:52.879Z,985.07
2022-08-16T02:46:53.887Z,985.00
2022-08-16T02:48:00.468Z,985.04
2022-08-16T02:48:53.843Z,985.09
2022-08-16T02:49:59.312Z,985.11
2022-08-16T02:51:06.708Z,985.08
2022-08-16T02:51:53.833Z,985.11
2022-08-16T02:52:52.802Z,985.07
2022-08-16T02:53:52.876Z,985.19
2022-08-16T02:54:55.435Z,985.11
2022-08-16T02:55:52.773Z,985.09
2022-08-16T02:56:52.769Z,985.08
2022-08-16T02:57:53.886Z,985.06
2022-08-16T02:58:52.750Z,985.07
2022-08-16T02:59:52.728Z,985.07
2022-08-16T03:00:52.775Z,985.14
2022-08-16T03:01:52.730Z,985.11
2022-08-16T03:02:55.753Z,985.03
2022-08-16T03:04:29.278Z,985.07
2022-08-16T03:04:54.130Z,985.08
2022-08-16T03:05:53.222Z,985.02
2022-08-16T03:06:56.622Z,985.06
2022-08-16T03:07:52.653Z,985.10
2022-08-16T03:08:53.400Z,985.06
2022-08-16T03:09:52.642Z,985.06
2022-08-16T03:10:52.638Z,985.09
2022-08-16T03:11:52.661Z,985.10
2022-08-16T03:12:55.493Z,985.08
2022-08-16T03:13:53.029Z,985.18
2022-08-16T03:14:52.576Z,985.11
2022-08-16T03:15:52.581Z,985.08
2022-08-16T03:16:59.392Z,985.12
2022-08-16T03:17:54.249Z,985.12
2022-08-16T03:18:52.568Z,985.07
2022-08-16T03:20:00.082Z,985.04
2022-08-16T03:20:55.658Z,985.01
2022-08-16T03:21:52.526Z,985.06
2022-08-16T03:22:52.501Z,985.03
2022-08-16T03:23:52.502Z,984.98
2022-08-16T03:24:52.494Z,985.05
2022-08-16T03:25:52.512Z,985.01
2022-08-16T03:26:52.469Z,985.03
2022-08-16T03:27:52.463Z,985.03
2022-08-16T03:28:52.473Z,985.06
2022-08-16T03:29:54.302Z,985.07
2022-08-16T03:30:52.444Z,985.03
2022-08-16T03:31:52.552Z,984.98
2022-08-16T03:32:52.483Z,984.97
2022-08-16T03:33:52.403Z,984.97
2022-08-16T03:34:52.372Z,984.99
2022-08-16T03:35:56.963Z,985.03
2022-08-16T03:36:53.347Z,984.98
2022-08-16T03:38:02.620Z,985.04
2022-08-16T03:38:53.392Z,985.02
2022-08-16T03:39:56.660Z,984.97
2022-08-16T03:40:53.330Z,985.00
2022-08-16T03:41:59.937Z,985.02
2022-08-16T03:43:00.396Z,985.05
2022-08-16T03:43:53.305Z,985.04
2022-08-16T03:45:03.511Z,985.02
2022-08-16T03:45:53.570Z,985.04
2022-08-16T03:46:52.281Z,984.97
2022-08-16T03:47:58.523Z,984.96
2022-08-16T03:48:53.264Z,985.05
2022-08-16T03:49:52.485Z,984.94
2022-08-16T03:51:00.109Z,985.08
2022-08-16T03:51:53.208Z,985.02
2022-08-16T03:52:53.869Z,985.09
2022-08-16T03:54:00.676Z,985.08
2022-08-16T03:54:59.162Z,985.01
2022-08-16T03:55:53.183Z,985.06
2022-08-16T03:56:57.926Z,984.98
2022-08-16T03:57:53.174Z,985.04
2022-08-16T03:58:52.645Z,985.00
2022-08-16T03:59:52.141Z,985.13
2022-08-16T04:00:56.926Z,985.09
2022-08-16T04:01:53.681Z,985.13
2022-08-16T04:02:52.100Z,985.19
2022-08-16T04:03:52.733Z,985.16
2022-08-16T04:04:52.112Z,985.16
2022-08-16T04:05:54.172Z,985.18
2022-08-16T04:06:52.076Z,985.18
2022-08-16T04:07:52.063Z,985.17
2022-08-16T04:08:52.055Z,985.05
2022-08-16T04:09:52.032Z,985.13
2022-08-16T04:10:52.025Z,985.16
2022-08-16T04:11:52.024Z,985.15
2022-08-16T04:12:54.314Z,985.08
2022-08-16T04:14:00.333Z,985.16
2022-08-16T04:14:52.989Z,985.16
2022-08-16T04:15:52.874Z,985.19
2022-08-16T04:16:51.963Z,985.22
2022-08-16T04:17:51.972Z,985.17
2022-08-16T04:18:51.963Z,985.23
2022-08-16T04:19:54.964Z,985.22
2022-08-16T04:20:52.947Z,985.25
2022-08-16T04:21:51.940Z,985.22
2022-08-16T04:22:51.927Z,985.23
2022-08-16T04:23:51.893Z,985.31
2022-08-16T04:24:55.290Z,985.30
2022-08-16T04:25:52.917Z,985.26
2022-08-16T04:26:51.845Z,985.34
2022-08-16T04:27:55.624Z,985.32
2022-08-16T04:29:14.624Z,985.36
2022-08-16T04:29:52.853Z,985.39
2022-08-16T04:30:51.824Z,985.32
2022-08-16T04:31:55.579Z,985.35
2022-08-16T04:32:52.804Z,985.35
2022-08-16T04:33:51.793Z,985.29
2022-08-16T04:34:51.800Z,985.35
2022-08-16T04:35:51.798Z,985.31
2022-08-16T04:36:51.763Z,985.40
2022-08-16T04:37:53.876Z,985.30
2022-08-16T04:38:52.413Z,985.34
2022-08-16T04:39:55.582Z,985.42
2022-08-16T04:40:51.731Z,985.40
2022-08-16T04:41:56.898Z,985.39
2022-08-16T04:42:52.836Z,985.40
2022-08-16T04:43:51.723Z,985.35
2022-08-16T04:44:54.448Z,985.38
2022-08-16T04:46:00.361Z,985.42
2022-08-16T04:47:03.122Z,985.48
2022-08-16T04:47:56.163Z,985.42
2022-08-16T04:48:51.673Z,985.48
2022-08-16T04:49:52.282Z,985.51
2022-08-16T04:50:51.623Z,985.49
2022-08-16T04:51:53.697Z,985.51
2022-08-16T04:52:51.626Z,985.58
2022-08-16T04:53:51.944Z,985.60
2022-08-16T04:54:51.598Z,985.58
2022-08-16T04:55:53.489Z,985.50
2022-08-16T04:56:51.565Z,985.57
2022-08-16T04:57:53.249Z,985.53
2022-08-16T04:58:51.558Z,985.49
2022-08-16T04:59:54.312Z,985.54
2022-08-16T05:00:51.524Z,985.56
2022-08-16T05:01:58.087Z,985.56
2022-08-16T05:02:55.654Z,985.58
2022-08-16T05:04:00.752Z,985.63
2022-08-16T05:04:52.510Z,985.56
2022-08-16T05:05:59.007Z,985.62
2022-08-16T05:06:52.472Z,985.64
2022-08-16T05:07:58.511Z,985.58
2022-08-16T05:08:52.463Z,985.63
2022-08-16T05:09:51.455Z,985.68
2022-08-16T05:10:51.418Z,985.72
2022-08-16T05:11:51.415Z,985.67
2022-08-16T05:12:51.403Z,985.69
2022-08-16T05:13:51.780Z,985.69
2022-08-16T05:15:01.832Z,985.69
2022-08-16T05:15:52.390Z,985.69
2022-08-16T05:16:52.118Z,985.68
2022-08-16T05:17:58.424Z,985.67
2022-08-16T05:18:52.356Z,985.76
2022-08-16T05:19:57.314Z,985.72
2022-08-16T05:20:54.216Z,985.76
2022-08-16T05:21:52.297Z,985.74
2022-08-16T05:22:51.300Z,985.83
2022-08-16T05:23:55.414Z,985.81
2022-08-16T05:24:54.923Z,985.77
2022-08-16T05:25:51.316Z,985.85
2022-08-16T05:26:51.772Z,985.86
2022-08-16T05:27:51.254Z,985.84
2022-08-16T05:28:55.483Z,985.82
2022-08-16T05:29:57.642Z,985.80
2022-08-16T05:30:52.236Z,985.82
2022-08-16T05:31:53.220Z,985.84
2022-08-16T05:32:51.493Z,985.92
2022-08-16T05:33:53.589Z,985.78
2022-08-16T05:34:51.191Z,985.85
2022-08-16T05:35:54.617Z,985.84
2022-08-16T05:36:51.531Z,985.87
2022-08-16T05:37:51.177Z,985.83
2022-08-16T05:38:51.163Z,985.78
2022-08-16T05:39:51.176Z,985.89
2022-08-16T05:40:57.234Z,985.85
2022-08-16T05:41:52.215Z,985.78
2022-08-16T05:42:51.351Z,985.86
2022-08-16T05:43:51.099Z,985.81
2022-08-16T05:44:52.106Z,985.86
2022-08-16T05:45:51.064Z,985.89
2022-08-16T05:46:51.062Z,985.82
2022-08-16T05:48:00.374Z,985.82
2022-08-16T05:48:54.972Z,985.85
2022-08-16T05:49:52.059Z,985.84
2022-08-16T05:50:52.985Z,985.88
2022-08-16T05:51:51.016Z,985.93
2022-08-16T05:52:51.009Z,985.90
2022-08-16T05:53:51.021Z,985.96
2022-08-16T05:55:01.634Z,985.93
2022-08-16T05:55:51.968Z,986.03
2022-08-16T05:56:50.952Z,985.98
2022-08-16T05:57:52.641Z,986.03
2022-08-16T05:58:50.994Z,986.03
2022-08-16T05:59:59.851Z,986.05
2022-08-16T06:00:51.978Z,986.06
2022-08-16T06:01:50.974Z,986.08
2022-08-16T06:02:50.947Z,986.00
2022-08-16T06:03:50.922Z,985.98
2022-08-16T06:04:50.908Z,986.04
2022-08-16T06:05:50.894Z,985.95
2022-08-16T06:06:56.498Z,985.92
2022-08-16T06:07:58.208Z,985.90
2022-08-16T06:08:51.832Z,985.91
2022-08-16T06:09:50.843Z,985.96
2022-08-16T06:11:07.693Z,985.82
2022-08-16T06:11:51.830Z,985.91
2022-08-16T06:12:53.815Z,985.92
2022-08-16T06:13:52.803Z,985.91
2022-08-16T06:14:51.390Z,985.93
2022-08-16T06:15:50.816Z,985.99
2022-08-16T06:16:51.167Z,985.97
2022-08-16T06:17:51.804Z,986.03
2022-08-16T06:18:50.749Z,986.08
2022-08-16T06:19:51.231Z,986.10
2022-08-16T06:20:55.229Z,986.08
2022-08-16T06:21:54.804Z,986.12
2022-08-16T06:23:02.816Z,986.09
2022-08-16T06:23:54.383Z,986.05
2022-08-16T06:24:53.902Z,986.14
2022-08-16T06:25:52.226Z,986.09
2022-08-16T06:26:57.866Z,986.15
2022-08-16T06:27:57.490Z,986.05
2022-08-16T06:28:52.511Z,986.10
2022-08-16T06:29:50.660Z,986.07
2022-08-16T06:30:50.659Z,985.99
2022-08-16T06:31:50.638Z,986.01
2022-08-16T06:32:50.865Z,986.03
2022-08-16T06:33:51.790Z,986.07
2022-08-16T06:34:55.803Z,986.07
2022-08-16T06:35:55.264Z,986.10
2022-08-16T06:36:51.574Z,986.09
2022-08-16T06:37:52.439Z,986.14
2022-08-16T06:38:56.084Z,986.10
2022-08-16T06:39:51.597Z,986.03
2022-08-16T06:40:50.570Z,986.00
2022-08-16T06:41:50.536Z,986.02
2022-08-16T06:42:55.294Z,986.09
2022-08-16T06:43:52.504Z,986.09
2022-08-16T06:44:50.500Z,986.00
2022-08-16T06:45:50.519Z,985.93
2022-08-16T06:46:50.883Z,986.11
2022-08-16T06:47:54.360Z,986.03
2022-08-16T06:48:51.638Z,986.02
2022-08-16T06:49:53.910Z,986.01
2022-08-16T06:50:50.457Z,986.07
2022-08-16T06:51:50.428Z,986.06
2022-08-16T06:52:57.766Z,986.04
2022-08-16T06:53:52.808Z,986.14
2022-08-16T06:54:50.407Z,986.03
2022-08-16T06:55:53.774Z,986.15
2022-08-16T06:56:52.420Z,986.14
2022-08-16T06:57:50.378Z,986.16
2022-08-16T06:58:50.395Z,986.12
2022-08-16T06:59:58.210Z,986.08
2022-08-16T07:00:51.435Z,986.10
2022-08-16T07:01:54.028Z,986.13
2022-08-16T07:02:51.310Z,986.14
2022-08-16T07:03:55.938Z,986.12
2022-08-16T07:04:52.761Z,986.17
2022-08-16T07:05:50.314Z,986.11
2022-08-16T07:06:50.264Z,986.22
2022-08-16T07:07:51.094Z,986.17
2022-08-16T07:08:50.260Z,986.17
2022-08-16T07:09:51.263Z,986.14
2022-08-16T07:10:50.247Z,986.19
2022-08-16T07:11:52.331Z,986.19
2022-08-16T07:13:04.458Z,986.23
2022-08-16T07:14:00.661Z,986.23
2022-08-16T07:14:52.167Z,986.24
2022-08-16T07:15:51.143Z,986.24
2022-08-16T07:16:50.194Z,986.21
2022-08-16T07:17:50.191Z,986.21
2022-08-16T07:18:58.151Z,986.21
2022-08-16T07:20:03.012Z,986.22
2022-08-16T07:20:51.189Z,986.20
2022-08-16T07:21:59.513Z,986.23
2022-08-16T07:22:53.090Z,986.17
2022-08-16T07:23:51.117Z,986.21
2022-08-16T07:24:51.114Z,986.19
2022-08-16T07:25:50.110Z,986.14
2022-08-16T07:26:50.075Z,986.16
2022-08-16T07:27:50.055Z,986.26
2022-08-16T07:28:50.043Z,986.21
2022-08-16T07:29:50.054Z,986.16
2022-08-16T07:30:51.064Z,986.20
2022-08-16T07:31:50.035Z,986.28
2022-08-16T07:32:51.746Z,986.20
2022-08-16T07:33:53.376Z,986.20
2022-08-16T07:34:49.999Z,986.22
2022-08-16T07:35:50.085Z,986.26
2022-08-16T07:36:58.111Z,986.23
2022-08-16T07:37:50.981Z,986.21
2022-08-16T07:38:50.149Z,986.22
2022-08-16T07:39:49.967Z,986.18
2022-08-16T07:40:59.716Z,986.18
2022-08-16T07:41:51.929Z,986.20
2022-08-16T07:42:50.189Z,986.26
2022-08-16T07:43:49.895Z,986.24
2022-08-16T07:44:50.726Z,986.17
2022-08-16T07:45:53.125Z,986.14
2022-08-16T07:46:55.614Z,986.15
2022-08-16T07:47:51.219Z,986.12
2022-08-16T07:48:49.869Z,986.14
2022-08-16T07:49:57.750Z,986.13
2022-08-16T07:50:57.384Z,986.18
2022-08-16T07:51:55.908Z,986.11
2022-08-16T07:52:50.996Z,986.20
2022-08-16T07:54:02.175Z,986.12
2022-08-16T07:54:53.276Z,986.12
2022-08-16T07:55:49.783Z,986.15
2022-08-16T07:56:49.793Z,986.14
2022-08-16T07:58:00.706Z,986.16
2022-08-16T07:58:55.437Z,986.15
2022-08-16T07:59:50.754Z,986.16
2022-08-16T08:00:49.799Z,986.18
2022-08-16T08:01:49.759Z,986.17
2022-08-16T08:02:52.174Z,986.17
2022-08-16T08:03:49.699Z,986.24
2022-08-16T08:04:49.735Z,986.24
2022-08-16T08:05:49.698Z,986.26
2022-08-16T08:06:50.915Z,986.22
2022-08-16T08:07:49.664Z,986.26
2022-08-16T08:08:52.590Z,986.32
2022-08-16T08:09:50.654Z,986.29
2022-08-16T08:10:49.645Z,986.27
2022-08-16T08:12:01.189Z,986.27
2022-08-16T08:12:51.076Z,986.26
2022-08-16T08:13:50.710Z,986.27
2022-08-16T08:14:49.656Z,986.26
2022-08-16T08:15:52.427Z,986.31
2022-08-16T08:16:49.590Z,986.34
2022-08-16T08:17:49.591Z,986.37
2022-08-16T08:18:50.198Z,986.34
2022-08-16T08:19:53.167Z,986.36
2022-08-16T08:20:58.913Z,986.39
2022-08-16T08:22:01.327Z,986.27
2022-08-16T08:22:50.540Z,986.37
2022-08-16T08:23:49.545Z,986.39
2022-08-16T08:24:49.514Z,986.32
2022-08-16T08:25:53.604Z,986.37
2022-08-16T08:26:50.716Z,986.36
2022-08-16T08:27:49.483Z,986.27
2022-08-16T08:28:50.500Z,986.38
2022-08-16T08:30:49.016Z,986.39
2022-08-16T08:31:02.465Z,986.41
2022-08-16T08:31:51.360Z,986.37
2022-08-16T08:32:59.837Z,986.37
2022-08-16T08:33:51.376Z,986.37
2022-08-16T08:34:49.418Z,986.36
2022-08-16T08:35:49.412Z,986.33
2022-08-16T08:36:49.411Z,986.35
2022-08-16T08:37:55.579Z,986.35
2022-08-16T08:38:50.432Z,986.30
2022-08-16T08:39:54.804Z,986.35
2022-08-16T08:40:50.338Z,986.33
2022-08-16T08:41:50.417Z,986.28
2022-08-16T08:42:49.721Z,986.40
2022-08-16T08:43:50.480Z,986.29
2022-08-16T08:44:49.304Z,986.37
2022-08-16T08:45:52.756Z,986.28
2022-08-16T08:47:00.648Z,986.30
2022-08-16T08:47:54.241Z,986.30
2022-08-16T08:48:59.529Z,986.31
2022-08-16T08:49:55.492Z,986.34
2022-08-16T08:50:50.398Z,986.36
2022-08-16T08:51:49.278Z,986.37
2022-08-16T08:52:49.427Z,986.33
2022-08-16T08:53:58.032Z,986.30
2022-08-16T08:54:50.571Z,986.26
2022-08-16T08:55:49.224Z,986.33
2022-08-16T08:56:50.239Z,986.38
2022-08-16T08:57:49.215Z,986.40
2022-08-16T08:58:53.906Z,986.38
2022-08-16T08:59:50.199Z,986.36
2022-08-16T09:00:51.444Z,986.36
2022-08-16T09:01:58.148Z,986.39
2022-08-16T09:02:52.277Z,986.40
2022-08-16T09:03:49.315Z,986.39
2022-08-16T09:04:49.152Z,986.38
2022-08-16T09:05:51.512Z,986.35
2022-08-16T09:06:50.148Z,986.49
2022-08-16T09:08:01.493Z,986.42
2022-08-16T09:08:50.101Z,986.44
2022-08-16T09:09:49.105Z,986.45
2022-08-16T09:10:59.174Z,986.43
2022-08-16T09:12:03.995Z,986.45
2022-08-16T09:12:51.344Z,986.52
2022-08-16T09:13:49.057Z,986.51
2022-08-16T09:14:50.899Z,986.45
2022-08-16T09:15:49.060Z,986.47
2022-08-16T09:17:03.893Z,986.47
2022-08-16T09:17:52.231Z,986.55
2022-08-16T09:18:54.875Z,986.47
2022-08-16T09:19:55.103Z,986.49
2022-08-16T09:20:59.625Z,986.57
2022-08-16T09:21:55.994Z,986.57
2022-08-16T09:22:51.349Z,986.48
2022-08-16T09:23:48.965Z,986.49
2022-08-16T09:24:53.340Z,986.45
2022-08-16T09:25:48.938Z,986.48
2022-08-16T09:26:49.100Z,986.57
2022-08-16T09:27:57.922Z,986.56
2022-08-16T09:29:14.475Z,986.50
2022-08-16T09:30:00.082Z,986.62
2022-08-16T09:30:49.899Z,986.53
2022-08-16T09:31:53.625Z,986.51
2022-08-16T09:32:49.013Z,986.45
2022-08-16T09:33:52.052Z,986.55
2022-08-16T09:34:48.858Z,986.56
2022-08-16T09:35:53.216Z,986.56
2022-08-16T09:36:48.855Z,986.62
2022-08-16T09:38:01.118Z,986.64
2022-08-16T09:38:49.832Z,986.59
2022-08-16T09:39:50.430Z,986.61
2022-08-16T09:40:49.842Z,986.62
2022-08-16T09:41:53.339Z,986.59
2022-08-16T09:42:56.078Z,986.59
2022-08-16T09:43:59.943Z,986.62
2022-08-16T09:45:12.490Z,986.62
2022-08-16T09:45:49.777Z,986.69
2022-08-16T09:46:49.975Z,986.65
2022-08-16T09:47:56.986Z,986.63
2022-08-16T09:48:51.016Z,986.65
2022-08-16T09:49:50.985Z,986.66
2022-08-16T09:50:48.714Z,986.64
2022-08-16T09:51:49.637Z,986.65
2022-08-16T09:52:48.928Z,986.62
2022-08-16T09:53:53.771Z,986.66
2022-08-16T09:54:49.670Z,986.61
2022-08-16T09:55:49.091Z,986.67
2022-08-16T09:56:52.300Z,986.53
2022-08-16T09:57:53.070Z,986.55
2022-08-16T09:59:05.689Z,986.52
2022-08-16T09:59:56.166Z,986.53
2022-08-16T10:00:49.650Z,986.53
2022-08-16T10:01:48.631Z,986.55
2022-08-16T10:02:48.649Z,986.50
2022-08-16T10:04:02.386Z,986.59
2022-08-16T10:04:54.596Z,986.51
2022-08-16T10:05:49.605Z,986.50
2022-08-16T10:06:48.698Z,986.54
2022-08-16T10:07:48.622Z,986.47
2022-08-16T10:08:55.411Z,986.43
2022-08-16T10:09:55.115Z,986.53
2022-08-16T10:10:49.532Z,986.54
2022-08-16T10:11:49.940Z,986.52
2022-08-16T10:12:55.576Z,986.56
2022-08-16T10:13:49.504Z,986.54
2022-08-16T10:14:48.510Z,986.52
2022-08-16T10:15:55.636Z,986.53
2022-08-16T10:16:49.458Z,986.47
2022-08-16T10:18:00.331Z,986.47
2022-08-16T10:19:00.462Z,986.47
2022-08-16T10:19:50.376Z,986.40
2022-08-16T10:20:48.426Z,986.43
2022-08-16T10:21:56.340Z,986.42
2022-08-16T10:22:54.156Z,986.51
2022-08-16T10:23:49.392Z,986.48
2022-08-16T10:24:56.020Z,986.51
2022-08-16T10:27:16.244Z,986.47
2022-08-16T10:27:17.214Z,986.51
2022-08-16T10:27:53.259Z,986.45
2022-08-16T10:28:50.509Z,986.45
2022-08-16T10:30:00.228Z,986.50
2022-08-16T10:30:56.320Z,986.43
2022-08-16T10:31:53.266Z,986.50
2022-08-16T10:32:48.333Z,986.51
2022-08-16T10:33:48.327Z,986.55
2022-08-16T10:34:48.312Z,986.49
2022-08-16T10:35:48.294Z,986.47
2022-08-16T10:36:48.289Z,986.48
2022-08-16T10:37:49.458Z,986.48
2022-08-16T10:38:48.263Z,986.45
2022-08-16T10:39:48.261Z,986.43
2022-08-16T10:40:48.251Z,986.41
2022-08-16T10:41:48.298Z,986.49
2022-08-16T10:42:48.395Z,986.49
2022-08-16T10:43:48.209Z,986.37
2022-08-16T10:44:53.969Z,986.42
2022-08-16T10:46:00.555Z,986.44
2022-08-16T10:46:49.187Z,986.37
2022-08-16T10:47:48.296Z,986.39
2022-08-16T10:48:49.160Z,986.41
2022-08-16T10:49:48.183Z,986.38
2022-08-16T10:50:48.166Z,986.42
2022-08-16T10:52:02.503Z,986.41
2022-08-16T10:52:50.239Z,986.39
2022-08-16T10:53:48.116Z,986.36
2022-08-16T10:55:57.432Z,986.39
2022-08-16T10:56:52.290Z,986.48
2022-08-16T10:57:49.262Z,986.50
2022-08-16T10:58:48.061Z,986.45
2022-08-16T10:59:56.103Z,986.50
2022-08-16T11:00:53.176Z,986.48
2022-08-16T11:02:58.780Z,986.49
2022-08-16T11:03:54.034Z,986.53
2022-08-16T11:05:05.970Z,986.52
2022-08-16T11:06:06.411Z,986.48
2022-08-16T11:07:52.300Z,986.54
2022-08-16T11:08:48.053Z,986.46
2022-08-16T11:09:47.989Z,986.47
2022-08-16T11:11:07.025Z,986.48
2022-08-16T11:12:52.795Z,986.52
2022-08-16T11:14:11.038Z,986.44
2022-08-16T11:15:19.679Z,986.52
2022-08-16T11:15:55.811Z,986.49
2022-08-16T11:17:10.461Z,986.44
2022-08-16T11:18:47.863Z,986.49
2022-08-16T11:19:06.409Z,986.45
2022-08-16T11:20:50.563Z,986.46
2022-08-16T11:22:49.892Z,986.50
2022-08-16T11:23:58.274Z,986.48
2022-08-16T11:25:11.779Z,986.43
2022-08-16T11:26:20.615Z,986.42
2022-08-16T11:27:18.479Z,986.46
2022-08-16T11:27:50.149Z,986.38
2022-08-16T11:29:49.828Z,986.36
2022-08-16T11:30:50.676Z,986.36
2022-08-16T11:31:54.243Z,986.36
2022-08-16T11:32:48.976Z,986.31
2022-08-16T11:33:55.479Z,986.34
2022-08-16T11:35:14.082Z,986.37
2022-08-16T11:36:59.309Z,986.39
2022-08-16T11:38:57.299Z,986.33
2022-08-16T11:39:48.782Z,986.36
2022-08-16T11:40:52.684Z,986.35
2022-08-16T11:41:49.355Z,986.39
2022-08-16T11:42:48.758Z,986.40
2022-08-16T11:43:47.688Z,986.48
2022-08-16T11:44:56.144Z,986.46
2022-08-16T11:45:53.629Z,986.41
2022-08-16T11:46:48.683Z,986.47
2022-08-16T11:47:47.896Z,986.42
2022-08-16T11:48:47.650Z,986.37
2022-08-16T11:49:47.633Z,986.45
2022-08-16T11:50:47.613Z,986.40
2022-08-16T11:51:47.616Z,986.37
2022-08-16T11:52:47.622Z,986.46
2022-08-16T11:53:47.679Z,986.42
2022-08-16T11:54:47.592Z,986.39
2022-08-16T11:55:50.469Z,986.41
2022-08-16T11:56:52.476Z,986.36
2022-08-16T11:57:48.787Z,986.37
2022-08-16T11:58:51.654Z,986.43
2022-08-16T11:59:48.537Z,986.31
2022-08-16T12:00:51.244Z,986.34
2022-08-16T12:01:59.266Z,986.32
2022-08-16T12:02:48.557Z,986.30
2022-08-16T12:03:47.530Z,986.43
2022-08-16T12:04:51.600Z,986.42
2022-08-16T12:05:51.908Z,986.38
2022-08-16T12:06:47.472Z,986.39
2022-08-16T12:07:47.611Z,986.38
2022-08-16T12:08:47.493Z,986.32
2022-08-16T12:09:47.434Z,986.33
2022-08-16T12:10:47.464Z,986.31
2022-08-16T12:11:47.497Z,986.31
2022-08-16T12:12:48.451Z,986.31
2022-08-16T12:13:47.438Z,986.34
2022-08-16T12:14:47.420Z,986.29
2022-08-16T12:15:47.599Z,986.28
2022-08-16T12:16:48.792Z,986.32
2022-08-16T12:17:48.513Z,986.29
2022-08-16T12:19:47.388Z,986.26
2022-08-16T12:20:47.334Z,986.31
2022-08-16T12:21:58.143Z,986.29
2022-08-16T12:22:48.480Z,986.25
2022-08-16T12:23:47.360Z,986.28
2022-08-16T12:24:47.916Z,986.25
2022-08-16T12:25:48.347Z,986.24
2022-08-16T12:26:47.334Z,986.30
2022-08-16T12:27:47.345Z,986.29
2022-08-16T12:28:55.183Z,986.29
2022-08-16T12:29:48.323Z,986.26
2022-08-16T12:30:47.287Z,986.34
2022-08-16T12:32:00.749Z,986.34
2022-08-16T12:32:53.275Z,986.29
2022-08-16T12:33:48.266Z,986.29
2022-08-16T12:34:47.970Z,986.30
2022-08-16T12:35:48.221Z,986.27
2022-08-16T12:36:47.248Z,986.26
2022-08-16T12:37:47.398Z,986.29